createdAt,value
2023-07-24T00:00:04.634Z,67.26
2023-07-24T00:03:06.121Z,67.75
2023-07-24T00:06:07.627Z,81.03
2023-07-24T00:09:09.056Z,87.49
2023-07-24T00:12:10.438Z,95.33
2023-07-24T00:15:11.991Z,100.00
2023-07-24T00:18:13.380Z,100.00
2023-07-24T00:21:14.850Z,100.00
2023-07-24T00:24:16.379Z,100.00
2023-07-24T00:27:17.812Z,100.00
2023-07-24T00:30:19.339Z,100.00
2023-07-24T00:33:20.758Z,100.00
2023-07-24T00:36:23.362Z,100.00
2023-07-24T00:39:24.852Z,100.00
2023-07-24T00:42:26.281Z,100.00
2023-07-24T00:45:27.794Z,100.00
2023-07-24T00:48:29.660Z,100.00
2023-07-24T00:51:31.934Z,100.00
2023-07-24T00:54:34.947Z,100.00
2023-07-24T00:57:36.575Z,100.00
2023-07-24T01:00:39.680Z,100.00
2023-07-24T01:03:41.193Z,100.00
2023-07-24T01:06:42.761Z,100.00
2023-07-24T01:09:44.366Z,100.00
2023-07-24T01:13:01.113Z,100.00
2023-07-24T01:16:10.678Z,100.00
2023-07-24T01:19:47.376Z,100.00
2023-07-24T01:23:06.886Z,100.00
2023-07-24T01:26:09.107Z,100.00
2023-07-24T01:29:10.519Z,100.00
2023-07-24T01:32:11.957Z,100.00
2023-07-24T01:35:13.581Z,100.00
2023-07-24T01:38:15.683Z,100.00
2023-07-24T01:41:17.981Z,100.00
2023-07-24T01:44:19.484Z,100.00
2023-07-24T01:47:21.396Z,100.00
2023-07-24T01:50:22.829Z,100.00
2023-07-24T01:53:24.288Z,100.00
2023-07-24T01:56:25.794Z,100.00
2023-07-24T01:59:27.277Z,100.00
2023-07-24T02:02:28.744Z,100.00
2023-07-24T02:05:30.849Z,100.00
2023-07-24T02:08:32.288Z,100.00
2023-07-24T02:11:33.729Z,100.00
2023-07-24T02:14:35.174Z,100.00
2023-07-24T02:17:36.870Z,100.00
2023-07-24T02:20:38.297Z,100.00
2023-07-24T02:23:39.830Z,100.00
2023-07-24T02:26:41.231Z,100.00
2023-07-24T02:29:42.636Z,100.00
2023-07-24T02:32:44.089Z,100.00
2023-07-24T02:35:45.582Z,100.00
2023-07-24T02:38:47.032Z,100.00
2023-07-24T02:41:51.320Z,100.00
2023-07-24T02:44:54.178Z,100.00
2023-07-24T02:47:55.661Z,100.00
2023-07-24T02:50:57.143Z,100.00
2023-07-24T02:53:58.613Z,100.00
2023-07-24T02:57:00.043Z,100.00
2023-07-24T03:00:01.451Z,100.00
2023-07-24T03:03:03.025Z,100.00
2023-07-24T03:06:04.509Z,100.00
2023-07-24T03:09:05.919Z,100.00
2023-07-24T03:12:07.664Z,100.00
2023-07-24T03:15:09.450Z,100.00
2023-07-24T03:18:10.868Z,100.00
2023-07-24T03:21:12.346Z,100.00
2023-07-24T03:24:13.780Z,100.00
2023-07-24T03:27:15.258Z,100.00
2023-07-24T03:30:16.707Z,100.00
2023-07-24T03:33:18.106Z,100.00
2023-07-24T03:36:19.817Z,100.00
2023-07-24T03:39:21.964Z,100.00
2023-07-24T03:42:28.221Z,100.00
2023-07-24T03:45:29.822Z,100.00
2023-07-24T03:48:31.212Z,100.00
2023-07-24T03:51:34.316Z,100.00
2023-07-24T03:54:35.737Z,100.00
2023-07-24T03:57:37.319Z,100.00
2023-07-24T04:00:38.791Z,100.00
2023-07-24T04:03:40.347Z,100.00
2023-07-24T04:06:41.790Z,100.00
2023-07-24T04:09:43.250Z,100.00
2023-07-24T04:12:44.652Z,100.00
2023-07-24T04:15:46.171Z,100.00
2023-07-24T04:18:47.553Z,100.00
2023-07-24T04:21:48.984Z,100.00
2023-07-24T04:24:50.474Z,100.00
2023-07-24T04:27:51.999Z,100.00
2023-07-24T04:30:53.511Z,100.00
2023-07-24T04:33:54.998Z,100.00
2023-07-24T04:36:56.399Z,100.00
2023-07-24T04:39:58.049Z,100.00
2023-07-24T04:42:59.540Z,100.00
2023-07-24T04:46:01.031Z,100.00
2023-07-24T04:49:02.481Z,100.00
2023-07-24T04:52:04.269Z,100.00
2023-07-24T04:55:06.260Z,100.00
2023-07-24T04:58:07.645Z,100.00
2023-07-24T05:01:10.256Z,100.00
2023-07-24T05:04:11.768Z,100.00
2023-07-24T05:07:13.201Z,100.00
2023-07-24T05:10:14.806Z,100.00
2023-07-24T05:13:16.324Z,100.00
2023-07-24T05:16:17.785Z,100.00
2023-07-24T05:19:19.208Z,100.00
2023-07-24T05:22:20.768Z,100.00
2023-07-24T05:25:22.271Z,100.00
2023-07-24T05:28:23.680Z,100.00
2023-07-24T05:31:25.140Z,100.00
2023-07-24T05:34:27.172Z,100.00
2023-07-24T05:37:28.581Z,100.00
2023-07-24T05:40:29.965Z,100.00
2023-07-24T05:43:32.258Z,100.00
2023-07-24T05:46:33.953Z,100.00
2023-07-24T05:49:35.575Z,100.00
2023-07-24T05:52:36.984Z,100.00
2023-07-24T05:55:38.422Z,100.00
2023-07-24T05:58:39.821Z,100.00
2023-07-24T06:01:41.382Z,100.00
2023-07-24T06:04:42.827Z,100.00
2023-07-24T06:07:44.423Z,100.00
2023-07-24T06:10:48.942Z,100.00
2023-07-24T06:13:50.597Z,100.00
2023-07-24T06:16:52.037Z,100.00
2023-07-24T06:19:53.435Z,100.00
2023-07-24T06:22:54.834Z,100.00
2023-07-24T06:25:56.456Z,100.00
2023-07-24T06:28:57.923Z,100.00
2023-07-24T06:31:59.343Z,100.00
2023-07-24T06:35:00.768Z,100.00
2023-07-24T06:38:02.224Z,100.00
2023-07-24T06:41:04.133Z,100.00
2023-07-24T06:44:05.572Z,100.00
2023-07-24T06:47:07.049Z,100.00
2023-07-24T06:50:09.059Z,100.00
2023-07-24T06:53:10.553Z,100.00
2023-07-24T06:56:12.044Z,100.00
2023-07-24T06:59:13.513Z,100.00
2023-07-24T07:02:14.940Z,100.00
2023-07-24T07:05:16.511Z,100.00
2023-07-24T07:08:17.911Z,100.00
2023-07-24T07:11:19.327Z,100.00
2023-07-24T07:14:20.802Z,100.00
2023-07-24T07:17:22.260Z,100.00
2023-07-24T07:20:23.711Z,100.00
2023-07-24T07:23:25.152Z,100.00
2023-07-24T07:26:26.631Z,100.00
2023-07-24T07:29:28.098Z,100.00
2023-07-24T07:32:29.552Z,100.00
2023-07-24T07:35:31.053Z,100.00
2023-07-24T07:38:33.057Z,100.00
2023-07-24T07:41:34.485Z,100.00
2023-07-24T07:44:35.975Z,100.00
2023-07-24T07:47:37.748Z,100.00
2023-07-24T07:50:39.239Z,100.00
2023-07-24T07:53:41.421Z,100.00
2023-07-24T07:56:43.264Z,100.00
2023-07-24T07:59:44.758Z,100.00
2023-07-24T08:02:46.170Z,100.00
2023-07-24T08:05:47.651Z,100.00
2023-07-24T08:08:49.113Z,100.00
2023-07-24T08:11:52.244Z,100.00
2023-07-24T08:14:53.648Z,100.00
2023-07-24T08:17:55.077Z,100.00
2023-07-24T08:20:56.517Z,100.00
2023-07-24T08:23:59.100Z,100.00
2023-07-24T08:27:00.522Z,100.00
2023-07-24T08:30:02.000Z,100.00
2023-07-24T08:33:03.979Z,100.00
2023-07-24T08:36:07.582Z,100.00
2023-07-24T08:39:09.015Z,100.00
2023-07-24T08:42:12.245Z,100.00
2023-07-24T08:45:14.839Z,100.00
2023-07-24T08:48:16.638Z,100.00
2023-07-24T08:51:19.927Z,100.00
2023-07-24T08:54:21.415Z,100.00
2023-07-24T08:57:23.072Z,100.00
2023-07-24T09:00:24.540Z,100.00
2023-07-24T09:03:26.425Z,100.00
2023-07-24T09:06:28.861Z,100.00
2023-07-24T09:09:32.120Z,100.00
2023-07-24T09:12:33.518Z,100.00
2023-07-24T09:15:44.896Z,100.00
2023-07-24T09:18:46.313Z,100.00
2023-07-24T09:21:47.788Z,100.00
2023-07-24T09:24:53.975Z,100.00
2023-07-24T09:27:55.613Z,100.00
2023-07-24T09:30:59.229Z,100.00
2023-07-24T09:34:00.795Z,100.00
2023-07-24T09:37:02.426Z,95.35
2023-07-24T09:40:07.451Z,99.11
2023-07-24T09:43:40.988Z,100.00
2023-07-24T09:46:47.789Z,100.00
2023-07-24T09:50:04.898Z,98.85
2023-07-24T09:53:07.081Z,98.46
2023-07-24T09:56:10.643Z,98.50
2023-07-24T09:59:13.291Z,100.00
2023-07-24T10:02:14.832Z,100.00
2023-07-24T10:05:17.061Z,100.00
2023-07-24T10:08:20.037Z,100.00
2023-07-24T10:11:21.688Z,100.00
2023-07-24T10:14:23.391Z,100.00
2023-07-24T10:17:41.920Z,100.00
2023-07-24T10:20:43.585Z,100.00
2023-07-24T10:23:50.026Z,100.00
2023-07-24T10:26:56.190Z,100.00
2023-07-24T10:30:22.599Z,100.00
2023-07-24T10:33:33.155Z,100.00
2023-07-24T10:36:37.023Z,100.00
2023-07-24T10:39:42.648Z,100.00
2023-07-24T10:42:44.141Z,100.00
2023-07-24T10:45:52.496Z,100.00
2023-07-24T10:48:53.984Z,100.00
2023-07-24T10:51:59.236Z,100.00
2023-07-24T10:55:04.838Z,100.00
2023-07-24T10:58:07.350Z,100.00
2023-07-24T11:01:10.495Z,100.00
2023-07-24T11:04:13.714Z,100.00
2023-07-24T11:07:15.770Z,100.00
2023-07-24T11:10:22.232Z,100.00
2023-07-24T11:13:28.855Z,100.00
2023-07-24T11:16:34.578Z,100.00
2023-07-24T11:19:36.503Z,100.00
2023-07-24T11:22:43.465Z,100.00
2023-07-24T11:25:45.831Z,100.00
2023-07-24T11:28:47.259Z,100.00
2023-07-24T11:31:55.158Z,100.00
2023-07-24T11:34:57.387Z,100.00
2023-07-24T11:37:58.957Z,100.00
2023-07-24T11:41:02.260Z,100.00
2023-07-24T11:44:04.119Z,100.00
2023-07-24T11:47:06.996Z,100.00
2023-07-24T11:50:09.050Z,100.00
2023-07-24T11:53:23.258Z,100.00
2023-07-24T11:56:24.724Z,100.00
2023-07-24T11:59:26.961Z,100.00
2023-07-24T12:02:29.383Z,100.00
2023-07-24T12:05:31.056Z,100.00
2023-07-24T12:08:34.822Z,100.00
2023-07-24T12:11:46.593Z,100.00
2023-07-24T12:14:48.448Z,100.00
2023-07-24T12:17:49.914Z,100.00
2023-07-24T12:20:51.469Z,100.00
2023-07-24T12:23:52.924Z,100.00
2023-07-24T12:26:54.351Z,100.00
2023-07-24T12:29:55.890Z,100.00
2023-07-24T12:32:57.449Z,100.00
2023-07-24T12:35:58.888Z,100.00
2023-07-24T12:39:00.330Z,100.00
2023-07-24T12:42:01.768Z,100.00
2023-07-24T12:45:06.129Z,100.00
2023-07-24T12:48:07.789Z,96.00
2023-07-24T12:51:09.431Z,97.59
2023-07-24T12:54:22.290Z,100.00
2023-07-24T12:57:32.320Z,99.74
2023-07-24T13:00:33.876Z,98.60
2023-07-24T13:03:35.756Z,91.28
2023-07-24T13:06:37.698Z,89.55
2023-07-24T13:09:39.143Z,89.17
2023-07-24T13:12:40.542Z,86.02
2023-07-24T13:15:42.073Z,87.02
2023-07-24T13:18:44.167Z,79.47
2023-07-24T13:21:47.114Z,75.81
2023-07-24T13:24:48.729Z,71.71
2023-07-24T13:27:51.357Z,69.13
2023-07-24T13:30:53.025Z,70.40
2023-07-24T13:33:54.504Z,73.54
2023-07-24T13:36:56.012Z,71.39
2023-07-24T13:39:57.416Z,70.45
2023-07-24T13:42:58.874Z,64.95
2023-07-24T13:46:00.513Z,60.05
2023-07-24T13:49:02.035Z,66.90
2023-07-24T13:52:03.643Z,65.43
2023-07-24T13:55:05.814Z,68.24
2023-07-24T13:58:07.291Z,63.67
2023-07-24T14:01:08.786Z,63.49
2023-07-24T14:04:10.356Z,63.67
2023-07-24T14:07:14.061Z,65.91
2023-07-24T14:10:15.606Z,67.01
2023-07-24T14:13:17.002Z,63.91
2023-07-24T14:16:18.801Z,61.57
2023-07-24T14:19:20.340Z,61.70
2023-07-24T14:22:21.803Z,63.69
2023-07-24T14:25:23.259Z,63.56
2023-07-24T14:28:24.718Z,67.98
2023-07-24T14:31:26.304Z,66.23
2023-07-24T14:34:27.821Z,66.81
2023-07-24T14:37:29.403Z,71.79
2023-07-24T14:40:30.833Z,73.67
2023-07-24T14:43:32.448Z,67.94
2023-07-24T14:46:33.919Z,66.72
2023-07-24T14:49:35.412Z,67.06
2023-07-24T14:52:36.949Z,62.95
2023-07-24T14:55:38.450Z,63.20
2023-07-24T14:58:43.025Z,58.92
2023-07-24T15:01:44.569Z,59.55
2023-07-24T15:04:52.116Z,59.35
2023-07-24T15:07:53.602Z,60.01
2023-07-24T15:10:55.134Z,57.96
2023-07-24T15:13:56.544Z,56.22
2023-07-24T15:16:58.052Z,57.98
2023-07-24T15:19:59.455Z,59.74
2023-07-24T15:23:01.113Z,59.95
2023-07-24T15:26:02.744Z,60.70
2023-07-24T15:29:04.430Z,60.95
2023-07-24T15:32:07.055Z,60.68
2023-07-24T15:35:08.569Z,60.71
2023-07-24T15:38:09.997Z,61.57
2023-07-24T15:41:11.417Z,60.73
2023-07-24T15:44:12.830Z,60.60
2023-07-24T15:47:14.290Z,62.38
2023-07-24T15:50:15.929Z,62.56
2023-07-24T15:53:17.310Z,62.37
2023-07-24T15:56:18.884Z,62.85
2023-07-24T15:59:20.357Z,59.88
2023-07-24T16:02:21.878Z,61.28
2023-07-24T16:05:23.447Z,61.62
2023-07-24T16:08:25.228Z,61.27
2023-07-24T16:11:28.248Z,60.71
2023-07-24T16:14:30.098Z,62.54
2023-07-24T16:17:33.742Z,63.35
2023-07-24T16:20:36.055Z,64.13
2023-07-24T16:23:37.726Z,65.33
2023-07-24T16:26:39.940Z,67.98
2023-07-24T16:29:41.382Z,78.88
2023-07-24T16:32:49.145Z,98.58
2023-07-24T16:35:52.232Z,93.97
2023-07-24T16:38:53.717Z,100.00
2023-07-24T16:41:55.328Z,100.00
2023-07-24T16:44:59.504Z,100.00
2023-07-24T16:48:03.224Z,100.00
2023-07-24T16:51:05.156Z,100.00
2023-07-24T16:54:06.834Z,99.72
2023-07-24T16:57:08.290Z,100.00
2023-07-24T17:00:10.436Z,100.00
2023-07-24T17:03:12.097Z,100.00
2023-07-24T17:06:13.543Z,100.00
2023-07-24T17:09:15.037Z,100.00
2023-07-24T17:12:16.638Z,100.00
2023-07-24T17:15:18.105Z,100.00
2023-07-24T17:18:19.554Z,100.00
2023-07-24T17:21:22.496Z,100.00
2023-07-24T17:24:24.062Z,100.00
2023-07-24T17:27:26.370Z,100.00
2023-07-24T17:30:27.802Z,100.00
2023-07-24T17:33:29.241Z,100.00
2023-07-24T17:36:30.647Z,100.00
2023-07-24T17:39:32.071Z,100.00
2023-07-24T17:42:33.617Z,100.00
2023-07-24T17:45:35.524Z,100.00
2023-07-24T17:48:37.961Z,100.00
2023-07-24T17:51:39.474Z,100.00
2023-07-24T17:54:46.669Z,100.00
2023-07-24T17:57:50.751Z,100.00
2023-07-24T18:00:53.623Z,100.00
2023-07-24T18:03:55.093Z,100.00
2023-07-24T18:06:56.754Z,100.00
2023-07-24T18:09:58.138Z,100.00
2023-07-24T18:12:59.898Z,100.00
2023-07-24T18:16:01.324Z,100.00
2023-07-24T18:19:04.820Z,100.00
2023-07-24T18:22:06.287Z,100.00
2023-07-24T18:25:08.308Z,100.00
2023-07-24T18:28:12.627Z,100.00
2023-07-24T18:31:14.208Z,100.00
2023-07-24T18:34:16.348Z,100.00
2023-07-24T18:37:17.749Z,100.00
2023-07-24T18:40:19.178Z,100.00
2023-07-24T18:43:20.582Z,100.00
2023-07-24T18:46:22.068Z,100.00
2023-07-24T18:49:23.733Z,100.00
2023-07-24T18:52:25.132Z,100.00
2023-07-24T18:55:26.530Z,100.00
2023-07-24T18:58:28.010Z,100.00
2023-07-24T19:01:29.876Z,100.00
2023-07-24T19:04:31.562Z,100.00
2023-07-24T19:07:32.947Z,100.00
2023-07-24T19:10:34.508Z,100.00
2023-07-24T19:13:37.124Z,100.00
2023-07-24T19:16:38.852Z,100.00
2023-07-24T19:19:40.334Z,100.00
2023-07-24T19:22:41.771Z,100.00
2023-07-24T19:25:43.236Z,100.00
2023-07-24T19:28:50.892Z,100.00
2023-07-24T19:31:53.716Z,100.00
2023-07-24T19:34:57.226Z,100.00
2023-07-24T19:37:58.682Z,100.00
2023-07-24T19:41:01.993Z,100.00
2023-07-24T19:44:03.445Z,100.00
2023-07-24T19:47:05.301Z,100.00
2023-07-24T19:50:07.379Z,100.00
2023-07-24T19:53:08.916Z,100.00
2023-07-24T19:56:10.510Z,100.00
2023-07-24T19:59:11.989Z,100.00
2023-07-24T20:02:13.748Z,100.00
2023-07-24T20:05:15.254Z,100.00
2023-07-24T20:08:16.714Z,100.00
2023-07-24T20:11:18.165Z,100.00
2023-07-24T20:14:19.661Z,100.00
2023-07-24T20:17:21.138Z,100.00
2023-07-24T20:20:22.642Z,100.00
2023-07-24T20:23:24.485Z,100.00
2023-07-24T20:26:25.962Z,100.00
2023-07-24T20:29:27.404Z,100.00
2023-07-24T20:32:30.552Z,100.00
2023-07-24T20:35:33.367Z,100.00
2023-07-24T20:38:36.372Z,100.00
2023-07-24T20:41:37.819Z,100.00
2023-07-24T20:44:39.207Z,100.00
2023-07-24T20:47:40.685Z,100.00
2023-07-24T20:50:42.141Z,100.00
2023-07-24T20:53:43.916Z,100.00
2023-07-24T20:56:45.317Z,100.00
2023-07-24T20:59:47.576Z,100.00
2023-07-24T21:02:49.140Z,100.00
2023-07-24T21:05:50.695Z,100.00
2023-07-24T21:08:52.183Z,100.00
2023-07-24T21:11:53.625Z,100.00
2023-07-24T21:14:55.058Z,100.00
2023-07-24T21:17:56.522Z,100.00
2023-07-24T21:21:00.660Z,100.00
2023-07-24T21:24:03.353Z,100.00
2023-07-24T21:27:04.996Z,100.00
2023-07-24T21:30:07.556Z,100.00
2023-07-24T21:33:08.948Z,100.00
2023-07-24T21:36:10.603Z,100.00
2023-07-24T21:39:12.047Z,100.00
2023-07-24T21:42:13.468Z,100.00
2023-07-24T21:45:14.965Z,100.00
2023-07-24T21:48:16.790Z,100.00
2023-07-24T21:51:18.210Z,100.00
2023-07-24T21:54:19.662Z,100.00
2023-07-24T21:57:22.664Z,100.00
2023-07-24T22:00:26.063Z,100.00
2023-07-24T22:03:27.590Z,100.00
2023-07-24T22:06:29.208Z,100.00
2023-07-24T22:09:31.096Z,100.00
2023-07-24T22:12:33.869Z,100.00
2023-07-24T22:15:35.338Z,100.00
2023-07-24T22:18:36.826Z,100.00
2023-07-24T22:21:38.248Z,100.00
2023-07-24T22:24:40.430Z,100.00
2023-07-24T22:27:41.972Z,100.00
2023-07-24T22:30:43.519Z,100.00
2023-07-24T22:33:44.949Z,100.00
2023-07-24T22:36:46.360Z,100.00
2023-07-24T22:39:48.079Z,100.00
2023-07-24T22:42:49.507Z,100.00
2023-07-24T22:45:51.070Z,100.00
2023-07-24T22:48:52.537Z,100.00
2023-07-24T22:51:54.419Z,100.00
2023-07-24T22:54:55.944Z,100.00
2023-07-24T22:57:57.975Z,100.00
2023-07-24T23:00:59.506Z,100.00
2023-07-24T23:04:01.018Z,100.00
2023-07-24T23:07:02.477Z,100.00
2023-07-24T23:10:04.159Z,100.00
2023-07-24T23:13:05.661Z,100.00
2023-07-24T23:16:07.315Z,100.00
2023-07-24T23:19:09.064Z,100.00
2023-07-24T23:22:10.529Z,100.00
2023-07-24T23:25:11.908Z,100.00
2023-07-24T23:28:14.421Z,100.00
2023-07-24T23:31:15.912Z,100.00
2023-07-24T23:34:17.364Z,100.00
2023-07-24T23:37:18.772Z,100.00
2023-07-24T23:40:20.177Z,100.00
2023-07-24T23:43:21.598Z,100.00
2023-07-24T23:46:23.061Z,100.00
2023-07-24T23:49:24.554Z,100.00
2023-07-24T23:52:25.976Z,100.00
2023-07-24T23:55:31.570Z,100.00
2023-07-24T23:58:32.970Z,100.00
